Argos, Indiana
Current Conditions -  °F | °C
As of 11:35 AM on Thursday 30 Oct 2014 (Local Time) from KRCR Reporting Station
Overcast Overcast  
Wind Chill: 50°   Ceiling: 4100
Heat Index: 50°   Visibility: 10mi
Dew Point: 36°   Wind: 8mph
Humidity: 58%   Direction: 230°SW
Pressure: 30.15"   Gusts: NA
Location:  41.23°N, 86.24°W
Report Text: KRCR 301535Z AUTO 23007KT 10SM OVC041 10/02 A3015 RMK AO2
Loading
Personal Weather Stations






























Interactive Weather Map New forecast layout! Learn more

10-Day Weather Forecast

Advertisements
Track Severe Weather on mobile